createdAt,value
2023-02-22T00:01:36.021Z,98514.48
2023-02-22T00:04:06.210Z,98512.31
2023-02-22T00:06:33.836Z,98519.48
2023-02-22T00:09:04.349Z,98527.18
2023-02-22T00:11:31.373Z,98528.91
2023-02-22T00:13:58.472Z,98523.27
2023-02-22T00:16:27.244Z,98524.31
2023-02-22T00:18:54.445Z,98527.55
2023-02-22T00:21:25.048Z,98528.09
2023-02-22T00:23:54.083Z,98528.97
2023-02-22T00:26:22.883Z,98537.80
2023-02-22T00:28:52.832Z,98537.10
2023-02-22T00:31:21.631Z,98544.33
2023-02-22T00:33:50.789Z,98544.77
2023-02-22T00:36:18.184Z,98550.39
2023-02-22T00:38:45.194Z,98550.45
2023-02-22T00:41:12.527Z,98549.41
2023-02-22T00:43:40.973Z,98554.46
2023-02-22T00:46:08.285Z,98555.19
2023-02-22T00:48:37.069Z,98560.70
2023-02-22T00:51:04.462Z,98561.42
2023-02-22T00:53:31.790Z,98567.62
2023-02-22T00:55:59.047Z,98571.08
2023-02-22T00:58:28.417Z,98574.37
2023-02-22T01:00:56.794Z,98581.38
2023-02-22T01:03:23.938Z,98582.86
2023-02-22T01:05:55.618Z,98585.14
2023-02-22T01:08:24.629Z,98588.80
2023-02-22T01:10:52.196Z,98593.59
2023-02-22T01:13:21.158Z,98597.23
2023-02-22T01:15:48.452Z,98596.14
2023-02-22T01:18:16.777Z,98599.09
2023-02-22T01:20:47.564Z,98603.71
2023-02-22T01:23:16.857Z,98606.40
2023-02-22T01:25:45.714Z,98609.64
2023-02-22T01:28:15.148Z,98615.74
2023-02-22T01:30:45.745Z,98619.80
2023-02-22T01:33:15.084Z,98618.12
2023-02-22T01:35:43.021Z,98623.23
2023-02-22T01:38:10.273Z,98629.38
2023-02-22T01:40:41.481Z,98636.90
2023-02-22T01:43:19.281Z,98642.48
2023-02-22T01:46:20.637Z,98645.61
2023-02-22T01:49:02.477Z,98645.83
2023-02-22T01:51:38.631Z,98648.41
2023-02-22T01:54:17.920Z,98648.69
2023-02-22T01:56:57.167Z,98655.20
2023-02-22T01:59:24.817Z,98662.73
2023-02-22T02:01:52.010Z,98667.61
2023-02-22T02:04:24.961Z,98664.23
2023-02-22T02:07:03.536Z,98664.63
2023-02-22T02:09:43.316Z,98668.33
2023-02-22T02:12:14.204Z,98665.92
2023-02-22T02:14:44.095Z,98671.73
2023-02-22T02:17:14.916Z,98677.13
2023-02-22T02:20:07.958Z,98684.56
2023-02-22T02:22:54.685Z,98687.46
2023-02-22T02:25:55.659Z,98692.02
2023-02-22T02:28:25.879Z,98698.20
2023-02-22T02:31:05.231Z,98703.93
2023-02-22T02:34:04.233Z,98707.23
2023-02-22T02:37:07.949Z,98713.52
2023-02-22T02:39:43.147Z,98717.64
2023-02-22T02:42:17.430Z,98722.73
2023-02-22T02:45:08.318Z,98737.27
2023-02-22T02:47:41.913Z,98749.88
2023-02-22T02:50:24.168Z,98753.39
2023-02-22T02:52:55.203Z,98761.10
2023-02-22T02:55:23.164Z,98769.04
2023-02-22T02:57:50.046Z,98773.65
2023-02-22T03:00:26.174Z,98782.02
2023-02-22T03:03:30.643Z,98790.21
2023-02-22T03:06:15.801Z,98795.94
2023-02-22T03:08:53.258Z,98799.07
2023-02-22T03:11:35.319Z,98799.59
2023-02-22T03:14:24.744Z,98802.66
2023-02-22T03:17:13.019Z,98811.41
2023-02-22T03:19:49.656Z,98817.92
2023-02-22T03:22:34.383Z,98822.26
2023-02-22T03:25:07.402Z,98832.52
2023-02-22T03:27:48.869Z,98840.80
2023-02-22T03:30:55.430Z,98845.09
2023-02-22T03:33:33.260Z,98849.15
2023-02-22T03:36:11.781Z,98857.95
2023-02-22T03:38:42.204Z,98866.60
2023-02-22T03:41:15.872Z,98876.57
2023-02-22T03:43:48.504Z,98883.14
2023-02-22T03:46:18.853Z,98888.10
2023-02-22T03:49:06.539Z,98888.77
2023-02-22T03:51:36.389Z,98895.42
2023-02-22T03:54:04.389Z,98902.08
2023-02-22T03:56:52.689Z,98914.25
2023-02-22T03:59:26.759Z,98916.28
2023-02-22T04:01:56.371Z,98920.30
2023-02-22T04:04:24.869Z,98927.13
2023-02-22T04:06:52.999Z,98941.55
2023-02-22T04:09:22.712Z,98946.95
2023-02-22T04:11:49.803Z,98955.83
2023-02-22T04:14:16.816Z,98966.33
2023-02-22T04:16:43.919Z,98975.27
2023-02-22T04:19:10.879Z,98983.35
2023-02-22T04:21:39.137Z,98992.34
2023-02-22T04:24:11.466Z,98999.73
2023-02-22T04:26:40.448Z,99007.13
2023-02-22T04:29:08.001Z,99014.85
2023-02-22T04:31:38.635Z,99023.27
2023-02-22T04:34:06.304Z,99033.61
2023-02-22T04:36:37.523Z,99041.37
2023-02-22T04:39:04.887Z,99047.85
2023-02-22T04:41:32.842Z,99062.77
2023-02-22T04:43:59.869Z,99071.28
2023-02-22T04:46:28.259Z,99080.79
2023-02-22T04:48:57.273Z,99091.02
2023-02-22T04:51:26.355Z,99102.43
2023-02-22T04:54:06.373Z,99110.89
2023-02-22T04:56:36.568Z,99114.68
2023-02-22T04:59:05.979Z,99123.65
2023-02-22T05:01:35.396Z,99128.67
2023-02-22T05:04:07.574Z,99136.38
2023-02-22T05:06:34.875Z,99148.21
2023-02-22T05:09:02.897Z,99153.55
2023-02-22T05:11:29.941Z,99158.83
2023-02-22T05:13:56.991Z,99168.16
2023-02-22T05:16:24.648Z,99175.60
2023-02-22T05:18:52.025Z,99182.63
2023-02-22T05:21:19.125Z,99196.23
2023-02-22T05:23:46.200Z,99199.61
2023-02-22T05:26:13.735Z,99212.80
2023-02-22T05:28:42.094Z,99222.02
2023-02-22T05:31:09.122Z,99228.42
2023-02-22T05:33:36.552Z,99232.85
2023-02-22T05:36:07.215Z,99244.26
2023-02-22T05:38:42.657Z,99248.12
2023-02-22T05:41:13.471Z,99261.32
2023-02-22T05:43:40.814Z,99268.88
2023-02-22T05:46:08.408Z,99277.48
2023-02-22T05:48:36.157Z,99284.23
2023-02-22T05:51:05.007Z,99289.26
2023-02-22T05:53:32.071Z,99301.39
2023-02-22T05:56:03.435Z,99306.35
2023-02-22T05:58:30.634Z,99312.39
2023-02-22T06:00:57.619Z,99319.83
2023-02-22T06:03:25.108Z,99327.05
2023-02-22T06:05:52.063Z,99333.64
2023-02-22T06:08:20.079Z,99338.40
2023-02-22T06:10:50.556Z,99342.23
2023-02-22T06:13:19.427Z,99351.95
2023-02-22T06:15:47.514Z,99354.34
2023-02-22T06:18:14.732Z,99360.70
2023-02-22T06:20:41.659Z,99361.20
2023-02-22T06:23:08.811Z,99366.09
2023-02-22T06:25:36.980Z,99367.55
2023-02-22T06:28:04.304Z,99375.20
2023-02-22T06:30:31.683Z,99381.34
2023-02-22T06:32:58.720Z,99387.44
2023-02-22T06:35:25.857Z,99393.66
2023-02-22T06:37:54.143Z,99396.90
2023-02-22T06:40:21.161Z,99403.31
2023-02-22T06:42:49.054Z,99407.58
2023-02-22T06:45:17.694Z,99412.52
2023-02-22T06:47:45.200Z,99416.95
2023-02-22T06:50:21.959Z,99419.55
2023-02-22T06:52:49.312Z,99419.48
2023-02-22T06:55:22.630Z,99428.15
2023-02-22T06:57:51.163Z,99426.80
2023-02-22T07:00:21.118Z,99433.55
2023-02-22T07:02:48.516Z,99438.58
2023-02-22T07:05:20.102Z,99450.95
2023-02-22T07:07:54.954Z,99453.83
2023-02-22T07:10:28.303Z,99457.92
2023-02-22T07:13:02.035Z,99468.24
2023-02-22T07:15:30.807Z,99479.06
2023-02-22T07:17:58.326Z,99481.77
2023-02-22T07:20:28.299Z,99484.88
2023-02-22T07:22:56.521Z,99491.09
2023-02-22T07:25:23.759Z,99496.84
2023-02-22T07:27:52.025Z,99494.25
2023-02-22T07:30:27.366Z,99497.70
2023-02-22T07:32:55.405Z,99502.56
2023-02-22T07:35:29.716Z,99502.19
2023-02-22T07:37:59.526Z,99499.23
2023-02-22T07:40:26.803Z,99506.31
2023-02-22T07:42:59.019Z,99504.70
2023-02-22T07:45:32.070Z,99505.85
2023-02-22T07:48:01.227Z,99509.95
2023-02-22T07:50:30.634Z,99507.81
2023-02-22T07:53:00.376Z,99513.12
2023-02-22T07:55:30.861Z,99515.96
2023-02-22T07:58:01.499Z,99517.79
2023-02-22T08:00:39.786Z,99524.33
2023-02-22T08:03:10.722Z,99528.57
2023-02-22T08:05:40.057Z,99536.86
2023-02-22T08:08:08.484Z,99541.63
2023-02-22T08:10:35.965Z,99545.39
2023-02-22T08:13:04.777Z,99549.86
2023-02-22T08:15:36.609Z,99555.66
2023-02-22T08:18:08.835Z,99564.61
2023-02-22T08:20:38.221Z,99568.88
2023-02-22T08:23:07.273Z,99572.02
2023-02-22T08:25:35.019Z,99574.03
2023-02-22T08:28:10.884Z,99579.52
2023-02-22T08:30:42.840Z,99578.39
2023-02-22T08:33:13.877Z,99583.40
2023-02-22T08:35:41.114Z,99595.05
2023-02-22T08:38:17.308Z,99592.77
2023-02-22T08:40:45.064Z,99599.55
2023-02-22T08:43:13.410Z,99606.19
2023-02-22T08:45:40.566Z,99606.99
2023-02-22T08:48:07.868Z,99608.49
2023-02-22T08:50:35.762Z,99614.85
2023-02-22T08:53:04.832Z,99621.34
2023-02-22T08:55:35.728Z,99622.59
2023-02-22T08:58:05.407Z,99634.96
2023-02-22T09:00:33.592Z,99637.59
2023-02-22T09:03:05.958Z,99637.49
2023-02-22T09:05:33.034Z,99641.85
2023-02-22T09:08:01.196Z,99643.78
2023-02-22T09:10:32.403Z,99642.63
2023-02-22T09:13:06.600Z,99644.36
2023-02-22T09:15:35.896Z,99646.07
2023-02-22T09:18:08.766Z,99647.61
2023-02-22T09:20:37.633Z,99649.98
2023-02-22T09:23:09.326Z,99654.23
2023-02-22T09:25:47.616Z,99660.80
2023-02-22T09:28:27.804Z,99658.84
2023-02-22T09:30:57.834Z,99666.48
2023-02-22T09:33:25.551Z,99667.77
2023-02-22T09:35:52.587Z,99668.20
2023-02-22T09:38:24.366Z,99665.89
2023-02-22T09:41:08.471Z,99669.91
2023-02-22T09:43:50.550Z,99665.12
2023-02-22T09:46:34.251Z,99671.52
2023-02-22T09:49:06.919Z,99672.19
2023-02-22T09:51:48.771Z,99675.25
2023-02-22T09:54:42.924Z,99677.70
2023-02-22T09:57:17.624Z,99681.71
2023-02-22T10:00:16.656Z,99680.38
2023-02-22T10:02:51.985Z,99682.48
2023-02-22T10:05:27.548Z,99684.10
2023-02-22T10:08:09.622Z,99688.38
2023-02-22T10:10:46.664Z,99692.54
2023-02-22T10:13:30.119Z,99692.34
2023-02-22T10:16:05.956Z,99693.00
2023-02-22T10:18:54.509Z,99699.79
2023-02-22T10:21:50.771Z,99703.11
2023-02-22T10:24:42.873Z,99706.80
2023-02-22T10:27:20.113Z,99715.89
2023-02-22T10:30:25.037Z,99718.62
2023-02-22T10:33:18.707Z,99724.65
2023-02-22T10:35:47.264Z,99731.35
2023-02-22T10:38:19.915Z,99736.34
2023-02-22T10:40:56.536Z,99735.17
2023-02-22T10:43:25.335Z,99739.95
2023-02-22T10:45:55.890Z,99741.91
2023-02-22T10:48:28.178Z,99733.55
2023-02-22T10:51:01.475Z,99733.53
2023-02-22T10:53:29.632Z,99737.35
2023-02-22T10:56:09.855Z,99730.48
2023-02-22T10:58:51.774Z,99729.46
2023-02-22T11:01:25.615Z,99734.20
2023-02-22T11:04:04.152Z,99737.30
2023-02-22T11:06:34.672Z,99739.87
2023-02-22T11:09:17.566Z,99738.98
2023-02-22T11:11:47.609Z,99738.00
2023-02-22T11:14:28.188Z,99733.50
2023-02-22T11:16:57.765Z,99740.54
2023-02-22T11:19:30.842Z,99741.47
2023-02-22T11:22:14.291Z,99746.27
2023-02-22T11:24:52.651Z,99747.13
2023-02-22T11:27:27.822Z,99749.65
2023-02-22T11:30:08.163Z,99747.80
2023-02-22T11:32:44.246Z,99748.84
2023-02-22T11:35:28.246Z,99752.30
2023-02-22T11:38:32.221Z,99750.59
2023-02-22T11:41:14.051Z,99749.59
2023-02-22T11:43:43.552Z,99752.10
2023-02-22T11:46:16.598Z,99756.23
2023-02-22T11:49:12.272Z,99759.12
2023-02-22T11:52:16.276Z,99763.06
2023-02-22T11:55:36.306Z,99765.57
2023-02-22T11:58:53.636Z,99764.04
2023-02-22T12:01:36.466Z,99769.21
2023-02-22T12:04:32.677Z,99768.17
2023-02-22T12:07:21.618Z,99772.16
2023-02-22T12:09:58.213Z,99776.19
2023-02-22T12:12:39.923Z,99780.09
2023-02-22T12:15:15.654Z,99783.41
2023-02-22T12:18:21.639Z,99781.20
2023-02-22T12:21:00.646Z,99784.48
2023-02-22T12:23:41.146Z,99783.23
2023-02-22T12:26:22.497Z,99780.96
2023-02-22T12:29:06.133Z,99785.80
2023-02-22T12:31:52.811Z,99788.52
2023-02-22T12:34:43.150Z,99790.78
2023-02-22T12:37:12.769Z,99791.05
2023-02-22T12:39:53.488Z,99794.49
2023-02-22T12:42:50.110Z,99792.11
2023-02-22T12:45:42.409Z,99793.54
2023-02-22T12:48:42.872Z,99798.45
2023-02-22T12:51:25.478Z,99801.70
2023-02-22T12:54:30.871Z,99807.85
2023-02-22T12:57:23.228Z,99809.64
2023-02-22T12:59:55.601Z,99812.77
2023-02-22T13:02:39.153Z,99812.35
2023-02-22T13:05:12.994Z,99809.73
2023-02-22T13:07:46.961Z,99813.11
2023-02-22T13:10:30.791Z,99814.48
2023-02-22T13:13:10.670Z,99820.84
2023-02-22T13:15:44.094Z,99823.04
2023-02-22T13:18:47.489Z,99824.67
2023-02-22T13:21:29.533Z,99826.73
2023-02-22T13:24:05.478Z,99829.17
2023-02-22T13:26:47.049Z,99831.45
2023-02-22T13:29:22.640Z,99835.38
2023-02-22T13:32:11.855Z,99835.17
2023-02-22T13:34:56.285Z,99839.40
2023-02-22T13:37:51.075Z,99841.31
2023-02-22T13:40:42.232Z,99842.91
2023-02-22T13:43:21.106Z,99849.80
2023-02-22T13:46:31.499Z,99852.70
2023-02-22T13:49:10.935Z,99854.52
2023-02-22T13:52:07.867Z,99860.17
2023-02-22T13:54:46.073Z,99860.35
2023-02-22T13:57:26.750Z,99866.48
2023-02-22T14:00:15.469Z,99866.55
2023-02-22T14:03:08.552Z,99868.22
2023-02-22T14:05:44.679Z,99866.00
2023-02-22T14:08:21.255Z,99876.24
2023-02-22T14:11:18.088Z,99877.70
2023-02-22T14:14:00.551Z,99880.81
2023-02-22T14:16:33.372Z,99882.02
2023-02-22T14:19:23.221Z,99881.54
2023-02-22T14:22:02.241Z,99886.95
2023-02-22T14:24:47.106Z,99894.36
2023-02-22T14:27:17.036Z,99899.92
2023-02-22T14:29:56.080Z,99899.26
2023-02-22T14:32:34.690Z,99901.57
2023-02-22T14:35:14.249Z,99903.80
2023-02-22T14:37:57.109Z,99909.89
2023-02-22T14:40:28.852Z,99916.96
2023-02-22T14:43:19.297Z,99918.10
2023-02-22T14:45:53.013Z,99918.25
2023-02-22T14:48:20.233Z,99920.85
2023-02-22T14:50:52.765Z,99923.33
2023-02-22T14:53:36.169Z,99930.42
2023-02-22T14:56:17.242Z,99934.73
2023-02-22T14:58:51.564Z,99940.65
2023-02-22T15:01:19.726Z,99944.66
2023-02-22T15:03:49.749Z,99949.37
2023-02-22T15:06:25.286Z,99952.48
2023-02-22T15:09:06.907Z,99955.84
2023-02-22T15:11:35.717Z,99962.71
2023-02-22T15:14:25.241Z,99965.21
2023-02-22T15:16:56.104Z,99967.48
2023-02-22T15:19:34.477Z,99969.40
2023-02-22T15:22:02.381Z,99972.74
2023-02-22T15:24:34.015Z,99974.58
2023-02-22T15:27:07.743Z,99981.41
2023-02-22T15:29:46.832Z,99984.95
2023-02-22T15:32:30.441Z,99984.59
2023-02-22T15:35:16.448Z,99989.73
2023-02-22T15:37:46.092Z,99989.59
2023-02-22T15:40:20.354Z,99991.05
2023-02-22T15:42:52.547Z,99997.99
2023-02-22T15:45:24.610Z,99998.31
2023-02-22T15:47:54.468Z,100005.33
2023-02-22T15:50:25.995Z,100007.84
2023-02-22T15:53:01.122Z,100012.39
2023-02-22T15:55:34.294Z,100020.67
2023-02-22T15:58:10.401Z,100019.30
2023-02-22T16:00:41.524Z,100022.42
2023-02-22T16:03:15.904Z,100026.29
2023-02-22T16:05:49.932Z,100026.40
2023-02-22T16:08:25.115Z,100032.05
2023-02-22T16:11:13.096Z,100036.63
2023-02-22T16:13:52.524Z,100037.90
2023-02-22T16:16:20.982Z,100040.89
2023-02-22T16:18:50.023Z,100037.25
2023-02-22T16:21:23.112Z,100041.99
2023-02-22T16:23:51.416Z,100039.95
2023-02-22T16:26:29.109Z,100044.06
2023-02-22T16:29:05.581Z,100043.30
2023-02-22T16:31:38.626Z,100048.52
2023-02-22T16:34:07.921Z,100050.06
2023-02-22T16:36:44.738Z,100055.77
2023-02-22T16:39:22.018Z,100055.19
2023-02-22T16:41:50.881Z,100061.37
2023-02-22T16:44:18.275Z,100062.49
2023-02-22T16:46:45.681Z,100062.63
2023-02-22T16:49:14.172Z,100063.60
2023-02-22T16:51:48.832Z,100065.95
2023-02-22T16:54:25.115Z,100065.94
2023-02-22T16:56:54.054Z,100067.10
2023-02-22T16:59:22.889Z,100062.94
2023-02-22T17:01:49.783Z,100061.95
2023-02-22T17:04:21.503Z,100060.22
2023-02-22T17:06:48.663Z,100063.83
2023-02-22T17:09:15.730Z,100063.79
2023-02-22T17:11:43.673Z,100068.52
2023-02-22T17:14:17.544Z,100069.24
2023-02-22T17:16:46.514Z,100078.55
2023-02-22T17:19:19.829Z,100080.44
2023-02-22T17:21:48.234Z,100083.09
2023-02-22T17:24:19.516Z,100090.58
2023-02-22T17:26:46.469Z,100089.88
2023-02-22T17:29:17.159Z,100083.65
2023-02-22T17:31:45.254Z,100083.44
2023-02-22T17:34:12.610Z,100086.74
2023-02-22T17:36:39.509Z,100084.26
2023-02-22T17:39:09.928Z,100084.35
2023-02-22T17:41:40.326Z,100084.92
2023-02-22T17:44:07.801Z,100082.96
2023-02-22T17:46:40.226Z,100087.89
2023-02-22T17:49:07.782Z,100091.28
2023-02-22T17:51:34.785Z,100089.30
2023-02-22T17:54:01.946Z,100096.26
2023-02-22T17:56:28.987Z,100093.23
2023-02-22T17:58:56.362Z,100094.36
2023-02-22T18:01:31.565Z,100091.45
2023-02-22T18:04:01.588Z,100087.21
2023-02-22T18:06:32.112Z,100089.23
2023-02-22T18:09:00.442Z,100093.92
2023-02-22T18:11:31.930Z,100092.74
2023-02-22T18:13:59.206Z,100093.29
2023-02-22T18:16:27.673Z,100097.18
2023-02-22T18:18:55.978Z,100104.52
2023-02-22T18:21:23.880Z,100107.01
2023-02-22T18:23:50.769Z,100114.04
2023-02-22T18:26:20.901Z,100118.42
2023-02-22T18:28:48.743Z,100120.34
2023-02-22T18:31:17.956Z,100121.68
2023-02-22T18:33:47.643Z,100121.60
2023-02-22T18:36:16.857Z,100120.15
2023-02-22T18:38:44.199Z,100122.36
2023-02-22T18:41:15.636Z,100125.34
2023-02-22T18:43:43.470Z,100132.19
2023-02-22T18:46:12.699Z,100139.94
2023-02-22T18:48:40.234Z,100142.69
2023-02-22T18:51:11.183Z,100142.17
2023-02-22T18:53:40.522Z,100142.73
2023-02-22T18:56:10.565Z,100147.16
2023-02-22T18:58:38.288Z,100150.20
2023-02-22T19:01:06.727Z,100152.17
2023-02-22T19:03:37.495Z,100155.70
2023-02-22T19:06:10.193Z,100150.47
2023-02-22T19:08:38.922Z,100151.45
2023-02-22T19:11:12.358Z,100149.95
2023-02-22T19:13:40.148Z,100151.58
2023-02-22T19:16:09.507Z,100148.49
2023-02-22T19:18:36.601Z,100150.92
2023-02-22T19:21:08.060Z,100146.85
2023-02-22T19:23:44.820Z,100148.46
2023-02-22T19:26:20.648Z,100149.33
2023-02-22T19:28:47.910Z,100149.68
2023-02-22T19:31:25.493Z,100149.69
2023-02-22T19:33:52.996Z,100147.83
2023-02-22T19:36:25.117Z,100149.13
2023-02-22T19:38:52.011Z,100150.49
2023-02-22T19:41:22.437Z,100153.29
2023-02-22T19:43:52.349Z,100158.27
2023-02-22T19:46:21.080Z,100155.87
2023-02-22T19:48:48.729Z,100157.29
2023-02-22T19:51:18.012Z,100160.08
2023-02-22T19:53:45.425Z,100159.00
2023-02-22T19:56:18.685Z,100161.66
2023-02-22T19:58:49.093Z,100165.62
2023-02-22T20:01:22.508Z,100172.75
2023-02-22T20:03:59.157Z,100175.81
2023-02-22T20:06:30.263Z,100181.92
2023-02-22T20:08:57.700Z,100184.39
2023-02-22T20:11:27.125Z,100186.87
2023-02-22T20:13:57.238Z,100188.55
2023-02-22T20:16:24.093Z,100188.08
2023-02-22T20:18:51.558Z,100188.50
2023-02-22T20:21:23.724Z,100194.46
2023-02-22T20:23:50.716Z,100198.45
2023-02-22T20:26:21.940Z,100199.52
2023-02-22T20:28:49.779Z,100200.52
2023-02-22T20:31:17.877Z,100203.74
2023-02-22T20:33:46.914Z,100203.62
2023-02-22T20:36:17.128Z,100201.81
2023-02-22T20:38:45.299Z,100203.63
2023-02-22T20:41:22.413Z,100205.91
2023-02-22T20:43:50.772Z,100207.16
2023-02-22T20:46:17.941Z,100211.95
2023-02-22T20:48:45.484Z,100213.80
2023-02-22T20:51:14.844Z,100215.05
2023-02-22T20:53:44.356Z,100214.11
2023-02-22T20:56:13.480Z,100216.69
2023-02-22T20:58:41.590Z,100224.86
2023-02-22T21:01:13.912Z,100225.53
2023-02-22T21:03:43.176Z,100229.63
2023-02-22T21:06:15.006Z,100234.45
2023-02-22T21:08:50.127Z,100239.86
2023-02-22T21:11:18.280Z,100250.45
2023-02-22T21:13:45.676Z,100254.31
2023-02-22T21:16:18.030Z,100259.25
2023-02-22T21:18:46.280Z,100264.34
2023-02-22T21:21:13.190Z,100266.16
2023-02-22T21:23:40.853Z,100269.35
2023-02-22T21:26:16.688Z,100273.88
2023-02-22T21:28:50.845Z,100272.93
2023-02-22T21:31:21.723Z,100281.33
2023-02-22T21:33:51.538Z,100288.64
2023-02-22T21:36:19.929Z,100293.29
2023-02-22T21:38:52.608Z,100297.44
2023-02-22T21:41:23.096Z,100298.48
2023-02-22T21:43:54.078Z,100300.29
2023-02-22T21:46:22.184Z,100301.63
2023-02-22T21:48:49.247Z,100301.88
2023-02-22T21:51:20.257Z,100299.61
2023-02-22T21:53:51.504Z,100300.65
2023-02-22T21:56:23.682Z,100298.91
2023-02-22T21:59:13.557Z,100299.38
2023-02-22T22:01:46.410Z,100301.47
2023-02-22T22:04:18.218Z,100304.83
2023-02-22T22:06:53.276Z,100307.16
2023-02-22T22:09:23.047Z,100313.98
2023-02-22T22:11:53.042Z,100314.08
2023-02-22T22:14:22.824Z,100316.26
2023-02-22T22:16:58.052Z,100314.64
2023-02-22T22:19:30.723Z,100321.04
2023-02-22T22:21:57.839Z,100322.85
2023-02-22T22:24:28.057Z,100324.32
2023-02-22T22:26:55.351Z,100327.50
2023-02-22T22:29:26.431Z,100330.43
2023-02-22T22:31:55.792Z,100334.43
2023-02-22T22:34:23.803Z,100337.59
2023-02-22T22:36:52.348Z,100342.75
2023-02-22T22:39:20.368Z,100345.00
2023-02-22T22:41:47.753Z,100347.45
2023-02-22T22:44:15.885Z,100348.73
2023-02-22T22:46:48.416Z,100345.40
2023-02-22T22:49:15.831Z,100350.24
2023-02-22T22:51:42.779Z,100352.02
2023-02-22T22:54:13.288Z,100357.11
2023-02-22T22:56:41.730Z,100358.22
2023-02-22T22:59:12.606Z,100358.50
2023-02-22T23:01:43.801Z,100365.46
2023-02-22T23:04:15.605Z,100371.15
2023-02-22T23:06:49.349Z,100369.76
2023-02-22T23:09:23.672Z,100377.20
2023-02-22T23:11:53.109Z,100378.58
2023-02-22T23:14:30.547Z,100379.98
2023-02-22T23:17:02.723Z,100386.30
2023-02-22T23:19:36.221Z,100392.48
2023-02-22T23:22:06.396Z,100392.67
2023-02-22T23:24:35.586Z,100395.29
2023-02-22T23:27:06.721Z,100396.66
2023-02-22T23:29:37.540Z,100396.30
2023-02-22T23:32:06.002Z,100400.92
2023-02-22T23:34:35.255Z,100404.09
2023-02-22T23:42:02.479Z,100409.82
2023-02-22T23:44:29.827Z,100406.62
2023-02-22T23:46:56.734Z,100409.72
2023-02-22T23:49:35.258Z,100413.10
2023-02-22T23:52:03.505Z,100416.85
2023-02-22T23:54:35.730Z,100418.24
2023-02-22T23:57:04.834Z,100421.30
2023-02-22T23:59:32.883Z,100423.02
